Time;durP1;ratioP1;P1;durP2;ratioP2;P2;SDS_P1;SDS_P2;PMS_P1;PMS_P2;Temp;Humidity;BMP_temperature;BMP_pressure;BME280_temperature;BME280_humidity;BME280_pressure;Samples;Min_cycle;Max_cycle;Signal;HPM_P1;HPM_P2
2022/04/22 00:02:04;;;;;;;18.87;12.05;;;;;;;6.39;69.01;99735.03;4501214;31;20421;-69
2022/04/22 00:04:33;;;;;;;19.60;12.20;;;;;;;6.31;71.79;99736.81;4501138;31;20200;-69
2022/04/22 00:07:01;;;;;;;18.48;11.50;;;;;;;6.21;72.42;99730.75;4501031;31;20211;-69
2022/04/22 00:09:29;;;;;;;21.58;11.90;;;;;;;6.21;72.79;99730.75;4501107;31;20508;-69
2022/04/22 00:11:56;;;;;;;18.35;12.18;;;;;;;6.19;74.10;99728.16;4501306;31;20144;-69
2022/04/22 00:14:24;;;;;;;28.45;12.75;;;;;;;6.21;74.54;99725.53;4501052;31;20088;-69
2022/04/22 00:16:51;;;;;;;19.40;11.68;;;;;;;6.30;73.82;99720.25;4501054;31;20108;-69
2022/04/22 00:19:18;;;;;;;20.60;12.82;;;;;;;6.42;72.55;99720.19;4501079;31;20088;-69
2022/04/22 00:21:47;;;;;;;16.85;11.27;;;;;;;6.43;71.82;99716.72;4501095;31;20083;-69
2022/04/22 00:24:18;;;;;;;19.58;12.25;;;;;;;6.52;72.41;99704.44;4500873;31;20092;-69
2022/04/22 00:26:46;;;;;;;17.23;12.15;;;;;;;6.51;73.05;99719.28;4500981;31;20108;-69
2022/04/22 00:29:13;;;;;;;20.08;11.57;;;;;;;6.50;73.07;99716.66;4500994;31;20091;-69
2022/04/22 00:31:40;;;;;;;23.33;10.80;;;;;;;6.57;71.05;99718.34;4502053;31;20092;-69
2022/04/22 00:34:07;;;;;;;28.02;11.95;;;;;;;6.67;69.44;99715.66;4502856;31;20446;-69
2022/04/22 00:36:34;;;;;;;19.35;11.18;;;;;;;6.73;68.95;99706.91;4502796;31;20455;-69
2022/04/22 00:39:02;;;;;;;17.65;12.02;;;;;;;6.75;69.42;99704.25;4502752;31;20110;-69
2022/04/22 00:41:30;;;;;;;18.25;11.43;;;;;;;6.78;70.72;99701.63;4502835;31;20179;-69
2022/04/22 00:43:57;;;;;;;21.98;12.77;;;;;;;6.76;70.08;99691.19;4502900;31;20096;-69
2022/04/22 00:46:24;;;;;;;17.40;11.82;;;;;;;6.90;70.44;99691.06;4502603;31;20168;-69
2022/04/22 00:48:52;;;;;;;20.17;11.73;;;;;;;6.86;70.85;99690.22;4502639;31;20433;-69
2022/04/22 00:51:21;;;;;;;17.37;10.73;;;;;;;6.84;71.62;99689.37;4502676;31;20144;-69
2022/04/22 00:53:51;;;;;;;16.60;10.60;;;;;;;6.83;69.60;99677.16;4502637;31;20161;-69
2022/04/22 00:56:19;;;;;;;19.45;10.73;;;;;;;6.91;67.74;99680.56;4502794;31;20530;-69
2022/04/22 00:58:49;;;;;;;21.70;11.48;;;;;;;7.02;68.02;99672.63;4502598;31;20471;-69
2022/04/22 01:01:16;;;;;;;19.58;11.07;;;;;;;7.04;70.47;99676.13;4502666;31;20396;-69
2022/04/22 01:12:08;;;;;;;19.92;11.40;;;;;;;7.20;67.83;99668.97;4502674;31;20140;-69
2022/04/22 01:14:37;;;;;;;16.58;10.05;;;;;;;7.34;66.43;99667.06;4502410;31;20092;-69
2022/04/22 01:17:05;;;;;;;17.48;10.55;;;;;;;7.37;68.14;99661.81;4502449;31;20096;-69
2022/04/22 01:19:33;;;;;;;15.73;10.27;;;;;;;7.40;68.46;99653.06;4502438;31;20087;-69
2022/04/22 01:22:01;;;;;;;17.65;10.65;;;;;;;7.44;67.62;99654.75;4502449;31;20151;-69
2022/04/22 01:24:29;;;;;;;17.55;11.52;;;;;;;7.47;69.28;99648.63;4502408;31;20119;-69
2022/04/22 01:26:57;;;;;;;17.77;9.98;;;;;;;7.49;69.06;99652.97;4502377;31;20087;-69
2022/04/22 01:29:25;;;;;;;13.75;9.85;;;;;;;7.43;67.15;99651.25;4502350;31;20487;-69
2022/04/22 01:31:52;;;;;;;13.90;8.95;;;;;;;7.47;67.09;99640.75;4502259;31;20376;-69
2022/04/22 01:34:20;;;;;;;16.55;9.60;;;;;;;7.55;66.84;99645.00;4502338;31;20403;-69
2022/04/22 01:36:47;;;;;;;20.65;9.32;;;;;;;7.59;66.04;99641.47;4502306;31;20087;-69
2022/04/22 01:39:14;;;;;;;15.23;9.43;;;;;;;7.62;66.09;99633.56;4502376;31;20156;-69
2022/04/22 01:41:41;;;;;;;13.48;9.18;;;;;;;7.66;66.69;99630.00;4501935;31;20428;-69
2022/04/22 01:44:08;;;;;;;15.05;9.00;;;;;;;7.70;66.10;99625.59;4502124;31;20511;-69
2022/04/22 01:46:36;;;;;;;13.38;9.10;;;;;;;7.70;65.68;99617.72;4502240;31;20512;-69
2022/04/22 01:49:03;;;;;;;11.55;8.23;;;;;;;7.79;65.89;99612.37;4502207;31;20083;-69
2022/04/22 01:51:31;;;;;;;17.62;9.27;;;;;;;7.83;64.30;99602.72;4502223;31;20115;-69
2022/04/22 01:53:58;;;;;;;14.23;9.18;;;;;;;7.85;64.35;99595.72;4502104;31;20137;-69
2022/04/22 01:56:25;;;;;;;12.75;8.75;;;;;;;7.87;64.38;99599.16;4502262;31;20589;-69
2022/04/22 01:58:52;;;;;;;12.73;8.55;;;;;;;7.82;64.26;99595.75;4502125;31;20128;-69
2022/04/22 02:01:20;;;;;;;12.77;8.52;;;;;;;7.76;65.52;99595.81;4502108;31;20095;-69
2022/04/22 02:03:47;;;;;;;16.25;9.07;;;;;;;7.73;65.14;99611.59;4502060;31;20188;-69
2022/04/22 02:06:15;;;;;;;13.23;9.98;;;;;;;7.71;65.70;99613.37;4502196;31;20095;-69
2022/04/22 02:08:42;;;;;;;15.40;9.23;;;;;;;7.64;66.54;99599.47;4502034;31;20450;-69
2022/04/22 02:11:10;;;;;;;15.20;8.80;;;;;;;7.59;65.64;99594.25;4502130;31;20127;-69
2022/04/22 02:13:37;;;;;;;13.73;8.63;;;;;;;7.58;65.21;99595.16;4502278;31;20122;-69
2022/04/22 02:16:05;;;;;;;15.75;9.25;;;;;;;7.63;65.59;99589.84;4502083;31;20537;-69
2022/04/22 02:18:36;;;;;;;13.23;9.18;;;;;;;7.70;65.14;99586.25;4502006;31;20461;-69
2022/04/22 02:21:04;;;;;;;12.23;8.38;;;;;;;7.81;65.24;99586.12;4502132;31;20088;-69
2022/04/22 02:23:32;;;;;;;10.60;8.18;;;;;;;7.92;63.98;99589.50;4502160;31;20123;-69
2022/04/22 02:26:00;;;;;;;11.68;8.50;;;;;;;7.96;63.30;99583.31;4501978;31;20103;-69
2022/04/22 02:28:34;;;;;;;16.45;9.88;;;;;;;8.01;63.52;99588.47;4501992;31;20465;-69
2022/04/22 02:31:06;;;;;;;18.48;8.77;;;;;;;8.09;63.20;99586.59;4501846;31;20091;-69
2022/04/22 02:33:35;;;;;;;13.15;8.90;;;;;;;8.10;63.01;99583.13;4501894;31;20155;-69
2022/04/22 02:36:04;;;;;;;16.42;8.95;;;;;;;8.17;63.07;99591.78;4501883;31;20437;-69
2022/04/22 02:38:31;;;;;;;16.05;8.98;;;;;;;8.16;63.33;99583.00;4501888;31;20106;-69
2022/04/22 02:46:30;;;;;;;12.68;8.88;;;;;;;8.19;63.11;99568.97;4501882;31;20092;-69
2022/04/22 02:48:59;;;;;;;16.17;9.52;;;;;;;8.20;63.87;99571.59;4501868;31;20191;-69
2022/04/22 02:51:27;;;;;;;15.73;8.95;;;;;;;8.26;63.38;99560.97;4501872;31;20764;-69
2022/04/22 02:53:55;;;;;;;17.23;8.70;;;;;;;8.29;62.81;99560.94;4501597;31;20178;-69
2022/04/22 02:56:23;;;;;;;13.38;8.63;;;;;;;8.30;63.24;99562.69;4501985;31;20116;-69
2022/04/22 02:58:52;;;;;;;15.02;8.50;;;;;;;8.29;62.91;99560.06;4501761;31;20072;-69
2022/04/22 03:01:19;;;;;;;14.60;8.30;;;;;;;8.30;62.72;99552.19;4501681;31;20115;-69
2022/04/22 03:03:47;;;;;;;13.68;8.52;;;;;;;8.44;62.35;99551.97;4501964;31;20790;-69
2022/04/22 03:06:14;;;;;;;14.05;9.20;;;;;;;8.53;62.06;99545.72;4501800;31;20152;-69
2022/04/22 03:08:41;;;;;;;14.35;8.52;;;;;;;8.54;61.39;99547.44;4501690;31;20083;-69
2022/04/22 03:11:08;;;;;;;13.62;8.93;;;;;;;8.54;61.15;99545.69;4501873;31;20238;-69
2022/04/22 03:13:35;;;;;;;15.15;8.93;;;;;;;8.52;61.52;99551.87;4501804;31;20480;-69
2022/04/22 03:16:03;;;;;;;13.70;8.38;;;;;;;8.55;61.55;99549.16;4501663;31;20187;-69
2022/04/22 03:18:30;;;;;;;11.57;8.52;;;;;;;8.50;62.18;99544.00;4501639;31;20104;-69
2022/04/22 03:20:58;;;;;;;13.15;8.48;;;;;;;8.49;62.69;99538.78;4501651;31;20123;-69
2022/04/22 03:23:25;;;;;;;11.73;8.23;;;;;;;8.46;61.96;99530.97;4501545;31;20164;-69
2022/04/22 03:25:56;;;;;;;13.77;8.60;;;;;;;8.48;62.36;99526.53;4501766;31;20431;-69
2022/04/22 03:28:23;;;;;;;22.30;9.57;;;;;;;8.51;62.19;99539.62;4501513;31;20102;-69
2022/04/22 03:30:50;;;;;;;10.93;8.23;;;;;;;8.53;62.05;99538.69;4501326;31;20148;-69
2022/04/22 03:33:19;;;;;;;11.12;8.10;;;;;;;8.58;62.08;99518.47;4501760;31;20411;-69
2022/04/22 03:35:51;;;;;;;13.75;8.80;;;;;;;8.64;61.69;99519.28;4501389;31;20499;-69
2022/04/22 03:38:20;;;;;;;15.57;8.90;;;;;;;8.67;61.23;99520.09;4501490;31;20072;-69
2022/04/22 03:40:49;;;;;;;12.63;8.82;;;;;;;8.70;61.43;99527.91;4501420;31;20179;-69
2022/04/22 03:43:16;;;;;;;13.00;8.23;;;;;;;8.67;62.12;99524.47;4503948;31;20502;-69
2022/04/22 03:45:44;;;;;;;15.00;9.63;;;;;;;8.66;61.89;99520.09;4501792;31;20130;-69
2022/04/22 03:48:15;;;;;;;14.60;8.68;;;;;;;8.69;61.58;99517.41;4502169;31;20071;-69
2022/04/22 03:50:43;;;;;;;17.70;8.40;;;;;;;8.76;61.18;99525.19;4502464;31;20139;-69
2022/04/22 03:53:14;;;;;;;13.85;8.55;;;;;;;8.81;61.21;99528.56;4502237;31;20683;-69
2022/04/22 03:55:43;;;;;;;14.35;8.70;;;;;;;8.78;61.27;99520.75;4502163;31;20100;-69
2022/04/22 03:58:11;;;;;;;12.80;7.87;;;;;;;8.83;60.47;99521.53;4501820;31;20156;-69
2022/04/22 04:00:48;;;;;;;15.13;8.55;;;;;;;8.88;60.25;99524.06;4502073;31;20155;-69
2022/04/22 04:03:18;;;;;;;11.07;7.65;;;;;;;8.97;59.43;99523.88;4508097;31;20382;-69
2022/04/22 04:05:51;;;;;;;15.73;10.45;;;;;;;9.05;59.33;99522.00;4516244;31;20450;-69
2022/04/22 04:08:20;;;;;;;12.85;7.85;;;;;;;9.14;58.96;99514.81;4516970;31;20097;-69
2022/04/22 04:16:21;;;;;;;10.75;7.53;;;;;;;9.30;58.67;99505.75;4517045;31;20508;-69
2022/04/22 04:18:48;;;;;;;18.02;8.00;;;;;;;9.33;58.30;99501.28;4516942;31;20113;-69
2022/04/22 04:24:03;;;;;;;17.37;8.60;;;;;;;9.41;57.95;99529.16;4516981;31;20107;-69
2022/04/22 04:26:30;;;;;;;13.05;8.40;;;;;;;9.41;58.61;99526.53;4516961;31;20421;-69
2022/04/22 04:28:58;;;;;;;13.50;8.00;;;;;;;9.40;58.04;99516.91;4516780;31;20113;-69
2022/04/22 04:31:26;;;;;;;12.88;8.00;;;;;;;9.42;58.26;99525.62;4516549;31;20155;-69
2022/04/22 04:33:53;;;;;;;25.95;9.02;;;;;;;9.42;58.25;99538.78;4516670;31;20088;-69
2022/04/22 04:36:20;;;;;;;12.70;8.15;;;;;;;9.51;58.99;99535.97;4516772;31;20135;-69
2022/04/22 04:38:48;;;;;;;18.15;8.60;;;;;;;9.47;59.17;99531.66;4516608;31;20162;-69
2022/04/22 04:41:15;;;;;;;12.68;8.20;;;;;;;9.43;58.94;99530.84;4516511;31;20122;-69
2022/04/22 04:43:42;;;;;;;13.00;8.15;;;;;;;9.45;59.66;99523.81;4506176;31;20682;-69
2022/04/22 04:46:10;;;;;;;13.98;9.48;;;;;;;9.44;58.63;99527.34;4500585;31;20235;-69
2022/04/22 04:48:37;;;;;;;12.52;9.00;;;;;;;9.46;58.49;99533.41;4500660;31;20356;-69
2022/04/22 04:51:05;;;;;;;19.85;9.45;;;;;;;9.50;59.34;99523.69;4507772;31;20398;-69
2022/04/22 04:53:33;;;;;;;12.80;8.90;;;;;;;9.46;58.93;99530.78;4516372;31;20095;-69
2022/04/22 04:56:00;;;;;;;23.20;8.75;;;;;;;9.48;59.02;99521.13;4516693;31;20442;-69
2022/04/22 04:58:28;;;;;;;15.65;9.50;;;;;;;9.53;59.17;99519.25;4516458;31;20087;-69
2022/04/22 05:00:55;;;;;;;14.68;9.27;;;;;;;9.50;59.03;99521.94;4516229;31;20459;-69
2022/04/22 05:03:22;;;;;;;19.05;9.10;;;;;;;9.50;58.54;99544.75;4501276;31;20165;-69
2022/04/22 05:05:49;;;;;;;14.57;10.82;;;;;;;9.46;59.06;99543.94;4513870;31;20628;-69
2022/04/22 05:08:17;;;;;;;18.02;9.70;;;;;;;9.47;60.09;99542.16;4509255;31;20087;-69
2022/04/22 05:10:44;;;;;;;14.50;10.68;;;;;;;9.40;59.94;99553.72;4504302;31;20132;-69
2022/04/22 05:13:11;;;;;;;18.12;10.07;;;;;;;9.38;60.07;99547.62;4503800;31;20099;-69
2022/04/22 05:15:39;;;;;;;20.83;10.45;;;;;;;9.42;59.36;99539.66;4505674;31;20874;-69
2022/04/22 05:18:06;;;;;;;20.98;10.85;;;;;;;9.48;58.55;99542.16;4507553;31;20087;-69
2022/04/22 05:20:34;;;;;;;19.77;10.02;;;;;;;9.44;58.73;99545.75;4487259;31;20095;-69
2022/04/22 05:23:01;;;;;;;23.85;11.63;;;;;;;9.42;59.23;99550.16;4501833;31;20500;-69
2022/04/22 05:25:29;;;;;;;16.65;10.60;;;;;;;9.44;59.27;99547.53;4502130;31;20104;-69
2022/04/22 05:27:56;;;;;;;20.37;11.40;;;;;;;9.37;59.22;99536.25;4502180;31;20091;-69
2022/04/22 05:33:10;;;;;;;23.55;11.88;;;;;;;9.27;59.22;99539.97;4518224;31;20130;-68
2022/04/22 05:35:37;;;;;;;20.77;11.80;;;;;;;9.33;59.34;99540.72;4518064;31;20664;-69
2022/04/22 05:38:06;;;;;;;55.22;12.35;;;;;;;9.32;59.28;99545.97;4518174;31;20079;-69
2022/04/22 05:40:35;;;;;;;21.52;11.95;;;;;;;9.32;58.72;99540.72;4517989;31;20149;-70
2022/04/22 05:43:07;;;;;;;25.58;11.73;;;;;;;9.38;59.17;99529.22;4517888;31;20125;-70
2022/04/22 05:45:38;;;;;;;25.65;12.23;;;;;;;9.34;59.05;99524.03;4507658;31;20516;-70
2022/04/22 05:48:07;;;;;;;23.35;11.23;;;;;;;9.34;59.04;99526.66;4502031;31;20519;-70
2022/04/22 05:50:34;;;;;;;23.02;10.88;;;;;;;9.41;58.82;99529.16;4504207;31;20544;-70
2022/04/22 05:53:01;;;;;;;16.30;10.48;;;;;;;9.46;57.51;99520.28;4509375;31;20139;-70
2022/04/22 05:55:29;;;;;;;20.80;10.75;;;;;;;9.42;57.43;99525.62;4509129;31;20126;-70
2022/04/22 05:57:59;;;;;;;26.73;12.32;;;;;;;9.51;57.35;99530.72;4507972;31;20086;-70
2022/04/22 06:00:32;;;;;;;20.05;12.07;;;;;;;9.54;57.70;99521.00;4501916;31;20084;-70
2022/04/22 06:03:00;;;;;;;26.40;12.07;;;;;;;9.53;57.38;99527.13;4502001;31;20480;-70
2022/04/22 06:05:28;;;;;;;32.58;11.98;;;;;;;9.57;57.81;99520.91;4502059;31;20404;-69
2022/04/22 06:10:41;;;;;;;25.00;10.00;;;;;;;9.72;57.42;99518.88;4501638;31;20147;-69
2022/04/22 06:13:08;;;;;;;26.65;10.02;;;;;;;9.78;58.50;99518.69;4501780;31;20407;-69
2022/04/22 06:15:36;;;;;;;24.27;12.10;;;;;;;9.91;58.05;99522.78;4501888;31;20095;-69
2022/04/22 06:18:04;;;;;;;16.40;9.90;;;;;;;9.87;57.95;99515.88;4501211;31;20107;-68
2022/04/22 06:20:31;;;;;;;18.80;9.63;;;;;;;9.96;56.98;99525.31;4501633;31;20091;-69
2022/04/22 06:23:00;;;;;;;16.42;9.63;;;;;;;9.95;56.17;99503.41;4501997;31;20474;-69
2022/04/22 06:25:28;;;;;;;21.27;9.75;;;;;;;10.00;56.35;99505.91;4501872;31;20170;-69
2022/04/22 06:27:56;;;;;;;20.05;10.05;;;;;;;10.07;56.58;99504.91;4501394;31;20110;-69
2022/04/22 06:30:24;;;;;;;28.92;10.63;;;;;;;10.15;56.26;99504.72;4501475;31;20092;-69
2022/04/22 06:32:53;;;;;;;18.62;10.27;;;;;;;10.19;56.86;99495.81;4487317;31;20096;-69
2022/04/22 06:35:21;;;;;;;18.58;9.73;;;;;;;10.28;56.94;99498.25;4502303;31;20103;-69
2022/04/22 06:37:51;;;;;;;18.50;9.23;;;;;;;10.44;56.07;99493.47;4501799;31;20102;-69
2022/04/22 06:45:54;;;;;;;15.45;8.68;;;;;;;10.52;54.63;99488.88;4487008;31;20410;-69
2022/04/22 06:48:30;;;;;;;13.95;9.20;;;;;;;10.60;54.84;99496.56;4500971;31;20503;-70
2022/04/22 06:51:17;;;;;;;14.00;8.82;;;;;;;10.61;55.52;99498.31;4501801;31;20182;-70
2022/04/22 06:53:46;;;;;;;13.98;9.35;;;;;;;10.65;55.08;99492.06;4510822;31;20099;-69
2022/04/22 06:56:13;;;;;;;12.85;8.80;;;;;;;10.61;54.45;99495.69;4517402;31;20396;-69
2022/04/22 06:58:42;;;;;;;14.65;8.70;;;;;;;10.59;54.11;99492.22;4517622;31;20083;-70
2022/04/22 07:01:10;;;;;;;15.07;9.30;;;;;;;10.59;54.36;99486.94;4515798;31;20094;-70
2022/04/22 07:03:58;;;;;;;13.07;8.55;;;;;;;10.55;55.17;99488.78;4517427;31;20167;-70
2022/04/22 07:06:25;;;;;;;15.05;8.88;;;;;;;10.55;54.71;99495.84;4509751;31;20099;-70
2022/04/22 07:08:54;;;;;;;15.43;9.60;;;;;;;10.58;55.41;99506.28;4501994;31;20103;-70
2022/04/22 07:11:29;;;;;;;14.05;9.57;;;;;;;10.65;55.28;99500.81;4501258;31;20172;-70
2022/04/22 07:13:58;;;;;;;18.65;9.77;;;;;;;10.65;55.17;99498.19;4501497;31;20088;-69
2022/04/22 07:16:27;;;;;;;17.52;9.75;;;;;;;10.52;56.06;99499.41;4501492;31;20145;-71
2022/04/22 07:18:56;;;;;;;14.77;9.57;;;;;;;10.58;56.40;99501.03;4501285;31;20152;-70
2022/04/22 07:21:24;;;;;;;22.10;9.55;;;;;;;10.57;56.41;99492.25;4501434;31;20553;-70
2022/04/22 07:23:57;;;;;;;14.57;9.45;;;;;;;10.56;57.65;99497.56;4501280;31;20099;-70
2022/04/22 07:26:25;;;;;;;20.85;10.93;;;;;;;10.49;58.25;99496.84;4501263;31;20101;-70
2022/04/22 07:28:57;;;;;;;24.83;10.40;;;;;;;10.60;59.02;99496.56;4504427;31;20126;-70
2022/04/22 07:31:29;;;;;;;20.42;9.98;;;;;;;10.58;61.87;99495.75;4502107;31;20079;-68
2022/04/22 07:33:57;;;;;;;22.87;10.57;;;;;;;10.62;63.60;99500.03;4507567;31;20163;-68
2022/04/22 07:36:25;;;;;;;19.92;11.65;;;;;;;10.63;65.59;99493.84;4486949;31;20146;-68
2022/04/22 07:38:52;;;;;;;17.17;10.50;;;;;;;10.67;65.33;99488.50;4501035;31;20088;-68
2022/04/22 07:41:25;;;;;;;22.92;11.73;;;;;;;10.71;65.16;99498.03;4499849;31;20155;-68
2022/04/22 07:46:57;;;;;;;19.02;11.80;;;;;;;10.77;67.28;99503.13;4516321;31;20095;-68
2022/04/22 07:49:26;;;;;;;18.37;11.95;;;;;;;10.74;67.52;99502.34;4516759;31;20097;-67
2022/04/22 07:51:54;;;;;;;22.15;11.85;;;;;;;10.86;68.22;99507.28;4517083;31;20087;-68
2022/04/22 07:54:26;;;;;;;19.10;11.90;;;;;;;10.96;69.76;99492.97;4517382;31;20103;-67
2022/04/22 07:56:53;;;;;;;21.33;12.95;;;;;;;10.90;70.33;99493.13;4516842;31;20107;-67
2022/04/22 07:59:22;;;;;;;22.80;12.98;;;;;;;10.92;71.03;99495.72;4517610;31;20190;-68
2022/04/22 08:01:49;;;;;;;25.80;12.65;;;;;;;10.77;70.86;99492.56;4516887;31;20095;-68
2022/04/22 08:04:16;;;;;;;23.67;12.32;;;;;;;10.61;73.24;99491.28;4516887;31;20175;-68
2022/04/22 08:06:44;;;;;;;19.73;12.07;;;;;;;10.65;71.70;99492.06;4512486;31;20134;-68
2022/04/22 08:09:31;;;;;;;;;;;;;;;10.35;73.55;99491.91;4517496;31;20102;-67
2022/04/22 08:12:00;;;;;;;20.40;12.93;;;;;;;10.31;75.44;99487.66;4517009;31;20430;-67
2022/04/22 08:14:28;;;;;;;24.25;12.70;;;;;;;10.30;77.60;99491.19;4517402;31;20087;-68
2022/04/22 08:16:55;;;;;;;17.65;12.23;;;;;;;10.02;80.21;99486.56;4517352;31;20128;-67
2022/04/22 08:19:23;;;;;;;28.87;16.10;;;;;;;9.90;81.82;99483.37;4517446;31;20098;-67
2022/04/22 08:21:50;;;;;;;26.67;15.98;;;;;;;9.71;83.62;99480.28;4517591;31;20092;-68
2022/04/22 08:24:18;;;;;;;25.83;15.38;;;;;;;9.52;86.63;99480.69;4517310;31;20204;-67
2022/04/22 08:26:46;;;;;;;25.77;14.00;;;;;;;9.54;85.48;99473.66;4516680;31;20387;-70
2022/04/22 08:29:20;;;;;;;26.12;14.98;;;;;;;9.64;86.72;99476.06;4516411;31;20088;-69
2022/04/22 08:31:47;;;;;;;29.17;14.77;;;;;;;9.65;87.56;99465.53;4516813;31;20125;-69
2022/04/22 08:34:14;;;;;;;23.60;15.18;;;;;;;9.65;89.10;99462.03;4513485;31;20118;-70
2022/04/22 08:36:43;;;;;;;25.48;13.62;;;;;;;9.67;88.66;99471.59;4503595;31;20091;-70
2022/04/22 08:39:10;;;;;;;29.83;15.20;;;;;;;9.82;89.84;99468.63;4504754;31;20621;-70
2022/04/22 08:41:38;;;;;;;21.33;14.07;;;;;;;9.85;90.38;99467.66;4516509;31;20121;-70
2022/04/22 08:44:07;;;;;;;21.92;14.60;;;;;;;9.84;89.85;99471.22;4516501;31;20159;-69
2022/04/22 08:52:09;;;;;;;29.37;16.48;;;;;;;10.13;91.06;99453.84;4501831;31;20103;-70
2022/04/22 08:54:43;;;;;;;23.65;14.50;;;;;;;10.13;91.51;99452.09;4502313;31;20114;-69
2022/04/22 08:57:10;;;;;;;23.50;14.63;;;;;;;10.23;92.88;99442.19;4516358;31;20560;-69
2022/04/22 08:59:37;;;;;;;23.73;14.93;;;;;;;10.40;93.02;99440.03;4503585;31;20122;-69
2022/04/22 09:02:05;;;;;;;28.20;14.87;;;;;;;10.72;91.35;99427.75;4502807;31;20507;-68
2022/04/22 09:04:32;;;;;;;23.05;13.50;;;;;;;10.84;91.02;99424.75;4512854;31;20134;-69
2022/04/22 09:07:00;;;;;;;24.23;14.43;;;;;;;10.85;90.71;99429.16;4507005;31;20223;-69
2022/04/22 09:09:29;;;;;;;20.60;14.02;;;;;;;10.92;90.77;99427.19;4502475;31;20110;-68
2022/04/22 09:12:11;;;;;;;23.67;13.60;;;;;;;11.00;89.04;99419.94;4502492;31;20100;-69
2022/04/22 09:14:51;;;;;;;25.83;13.93;;;;;;;10.68;90.89;99423.47;4503095;31;20171;-68
2022/04/22 09:17:24;;;;;;;24.87;13.52;;;;;;;10.38;93.69;99417.25;4502695;31;20088;-68
2022/04/22 09:19:52;;;;;;;26.55;14.13;;;;;;;10.43;93.38;99410.97;4502643;31;20088;-68
2022/04/22 09:22:26;;;;;;;24.50;14.20;;;;;;;10.56;95.08;99400.94;4502733;31;20111;-69
2022/04/22 09:24:55;;;;;;;25.33;14.80;;;;;;;10.71;93.50;99402.31;4502907;31;20175;-68
2022/04/22 09:27:36;;;;;;;24.08;15.27;;;;;;;10.71;92.78;99394.41;4503034;31;20112;-69
2022/04/22 09:30:07;;;;;;;25.65;15.50;;;;;;;10.81;93.57;99387.94;4502673;31;20071;-70
2022/04/22 09:32:40;;;;;;;24.25;15.90;;;;;;;10.76;92.17;99393.38;4502465;31;20096;-69
2022/04/22 09:35:10;;;;;;;22.87;15.07;;;;;;;10.80;93.13;99388.00;4502461;31;20164;-66
2022/04/22 09:43:45;;;;;;;24.00;14.65;;;;;;;11.13;90.07;99388.78;4502094;31;20708;-67
2022/04/22 09:46:32;;;;;;;19.20;13.55;;;;;;;11.11;89.70;99390.63;4508392;31;20076;-66
2022/04/22 09:49:00;;;;;;;;;;;;;;;11.00;88.29;99390.94;4505887;31;20163;-67
2022/04/22 09:51:30;;;;;;;19.67;13.77;;;;;;;10.71;91.50;99391.78;4508872;31;20021;-67
2022/04/22 09:54:14;;;;;;;19.25;13.27;;;;;;;10.86;90.66;99385.22;4501436;31;20099;-67
2022/04/22 09:56:58;;;;;;;20.48;13.27;;;;;;;10.88;90.09;99392.13;4501457;31;20167;-67
2022/04/22 09:59:27;;;;;;;19.50;13.45;;;;;;;11.12;89.07;99382.66;4506725;31;20137;-67
2022/04/22 10:01:55;;;;;;;20.55;14.10;;;;;;;11.19;89.26;99392.09;4513240;31;20163;-67
2022/04/22 10:04:34;;;;;;;19.37;13.85;;;;;;;11.11;88.77;99388.84;4505893;31;20091;-67
2022/04/22 10:07:02;;;;;;;21.73;13.88;;;;;;;11.18;88.69;99386.88;4506192;31;20130;-68
2022/04/22 10:09:32;;;;;;;20.95;13.15;;;;;;;11.30;87.74;99383.84;4502660;31;20126;-68
2022/04/22 10:12:06;;;;;;;19.67;13.73;;;;;;;11.33;86.64;99373.22;4502789;31;20722;-68
2022/04/22 10:14:37;;;;;;;20.08;13.70;;;;;;;11.87;84.81;99366.25;4502842;31;20126;-67
2022/04/22 10:17:06;;;;;;;20.25;12.93;;;;;;;11.93;82.95;99356.34;4502584;31;20234;-68
2022/04/22 10:19:34;;;;;;;24.75;14.65;;;;;;;11.83;84.82;99346.97;4502359;31;20092;-68
2022/04/22 10:22:04;;;;;;;19.90;12.27;;;;;;;11.87;84.18;99353.94;4502355;31;20865;-68
2022/04/22 10:24:31;;;;;;;22.25;14.90;;;;;;;12.03;84.20;99346.34;4502208;31;20092;-68
2022/04/22 10:27:03;;;;;;;21.75;14.20;;;;;;;12.10;83.30;99341.72;4502089;31;20118;-69
2022/04/22 10:29:52;;;;;;;19.08;13.57;;;;;;;12.06;82.78;99345.37;4507247;31;20133;-68
2022/04/22 10:32:20;;;;;;;23.20;14.23;;;;;;;12.01;83.63;99342.00;4508398;31;20079;-68
2022/04/22 10:34:56;;;;;;;19.58;14.02;;;;;;;12.05;82.94;99338.34;4502600;31;20084;-67
2022/04/22 10:37:26;;;;;;;19.85;13.73;;;;;;;12.04;84.84;99337.50;4502417;31;20118;-68
2022/04/22 10:39:56;;;;;;;19.85;12.90;;;;;;;11.93;83.96;99339.63;4501893;31;20126;-68
2022/04/22 10:42:34;;;;;;;21.20;13.50;;;;;;;11.92;84.87;99332.66;4501961;31;20151;-68
2022/04/22 10:47:53;;;;;;;23.52;14.20;;;;;;;12.16;84.62;99312.47;4502546;31;20138;-67
2022/04/22 10:50:34;;;;;;;19.50;13.10;;;;;;;12.04;84.42;99320.78;4502379;31;20516;-67
2022/04/22 10:53:07;;;;;;;18.70;12.25;;;;;;;12.08;83.51;99315.34;4501906;31;20163;-67
2022/04/22 10:55:38;;;;;;;18.08;12.43;;;;;;;12.15;84.12;99318.62;4507537;31;20079;-67
2022/04/22 10:58:26;;;;;;;16.20;12.00;;;;;;;12.08;83.27;99310.06;4515374;31;20091;-68
2022/04/22 11:00:57;;;;;;;20.73;11.88;;;;;;;12.00;84.65;99313.91;4504119;31;20130;-68
2022/04/22 11:03:37;;;;;;;17.02;11.43;;;;;;;12.27;83.31;99312.94;4511196;31;20087;-68
2022/04/22 11:06:07;;;;;;;18.50;11.80;;;;;;;12.35;81.86;99302.94;4506502;31;20436;-68
2022/04/22 11:08:38;;;;;;;15.82;11.90;;;;;;;12.87;80.17;99303.62;4509203;31;20200;-68
2022/04/22 11:11:15;;;;;;;18.87;11.25;;;;;;;13.53;77.39;99292.22;4508402;31;20103;-68
2022/04/22 11:13:49;;;;;;;17.60;10.85;;;;;;;13.75;74.73;99287.78;4513366;31;20220;-68
2022/04/22 11:16:30;;;;;;;17.50;10.82;;;;;;;14.02;74.73;99291.00;4516719;31;20079;-69
2022/04/22 11:19:10;;;;;;;15.43;10.52;;;;;;;14.48;73.33;99294.25;4514585;31;20714;-68
2022/04/22 11:21:39;;;;;;;11.93;9.93;;;;;;;14.95;70.86;99295.72;4515202;31;20100;-69
2022/04/22 11:24:15;;;;;;;14.48;10.40;;;;;;;14.87;68.52;99289.88;4504199;31;20517;-69
2022/04/22 11:26:44;;;;;;;15.63;10.68;;;;;;;14.54;69.72;99298.47;4502458;31;20733;-68
2022/04/22 11:29:13;;;;;;;12.73;10.45;;;;;;;14.12;68.90;99291.47;4504093;31;20096;-68
2022/04/22 11:31:44;;;;;;;13.23;9.55;;;;;;;13.76;69.66;99289.50;4510756;31;20110;-68
2022/04/22 11:34:18;;;;;;;15.85;11.02;;;;;;;13.76;69.70;99281.53;4510487;31;20372;-68
2022/04/22 11:36:49;;;;;;;15.30;10.15;;;;;;;13.65;69.11;99285.59;4507274;31;20092;-68
2022/04/22 11:39:25;;;;;;;14.50;9.52;;;;;;;13.58;68.86;99283.19;4508304;31;20154;-68
2022/04/22 11:42:00;;;;;;;17.50;10.55;;;;;;;13.99;68.80;99282.34;4516189;31;20096;-68
2022/04/22 11:44:27;;;;;;;13.70;10.15;;;;;;;14.33;65.59;99282.56;4510496;31;20478;-68
2022/04/22 11:46:55;;;;;;;12.25;9.65;;;;;;;14.35;66.35;99280.72;4500956;31;20123;-69
2022/04/22 11:49:28;;;;;;;12.98;9.27;;;;;;;14.57;64.73;99270.03;4500703;31;20164;-68
2022/04/22 11:51:56;;;;;;;12.82;9.48;;;;;;;14.57;64.20;99271.84;4501153;31;20092;-69
2022/04/22 11:54:27;;;;;;;13.15;9.48;;;;;;;14.31;62.55;99271.19;4502014;31;20449;-68
2022/04/22 11:56:54;;;;;;;12.40;9.23;;;;;;;14.22;63.24;99265.44;4501989;31;20104;-69
2022/04/22 11:59:22;;;;;;;14.55;9.00;;;;;;;14.06;61.93;99259.94;4502009;31;20083;-69
2022/04/22 12:10:11;;;;;;;10.57;8.30;;;;;;;14.80;61.35;99246.87;4515236;31;20130;-68
2022/04/22 12:12:49;;;;;;;13.40;8.85;;;;;;;14.76;58.67;99240.84;4509541;31;20150;-68
2022/04/22 12:15:20;;;;;;;11.98;8.32;;;;;;;15.06;57.83;99227.94;4508805;31;20453;-68
2022/04/22 12:17:48;;;;;;;13.02;8.20;;;;;;;15.77;56.15;99225.28;4508639;31;20095;-68
2022/04/22 12:20:15;;;;;;;10.38;8.45;;;;;;;16.69;51.25;99216.84;4501215;31;20487;-68
2022/04/22 12:22:43;;;;;;;12.60;7.70;;;;;;;16.68;50.98;99205.34;4501508;31;20483;-68
2022/04/22 12:25:10;;;;;;;16.58;8.45;;;;;;;16.87;49.92;99204.34;4501768;31;20102;-68
2022/04/22 12:27:38;;;;;;;10.00;8.32;;;;;;;16.86;48.81;99200.84;4500725;31;20909;-68
2022/04/22 12:30:08;;;;;;;10.73;8.43;;;;;;;16.62;49.74;99203.03;4500800;31;20122;-68
2022/04/22 12:32:37;;;;;;;14.60;8.30;;;;;;;16.76;48.03;99201.44;4500639;31;20130;-68
2022/04/22 12:35:11;;;;;;;10.82;7.55;;;;;;;16.81;47.57;99212.66;4506880;31;20092;-68
2022/04/22 12:37:43;;;;;;;17.90;8.43;;;;;;;16.61;49.02;99214.63;4500701;31;20107;-68